Portada
METAR-TAF:

METAR-TAF

Aeroports :

Taïf, Aràbia Saudita

latitud: 21-29N, longitud: 040-33E, altitud: 1478 m

Observació

L'informe es va fer fa 26 minuts, a les 22:00 UTC
Vent calma
Temperatura 20°C
Humitat 64%
Pressió 1022 hPa
Visibilitat: 6000 m

METAR: OETF 242200Z 00000KT 6000 NSC 20/13 Q1022 NOSIG

Hora: 01:26 (22:26 UTC)

Pronòstic

L'informe es va fer fa 11 hores i 26 minuts, a les 11:00 UTC
Pronòstic vàlid del 24 a les 12 UTC al 25 a les 18 UTC
Vent 15 kt del Oest
Visibilitat 10 km o més
Escasses núvols a una alçada de 3000 ft
Temporalment
l' 24 a les 12 UTC al 24 a les 16 UTC
Escasses núvols a una alçada de 2500 ft, Cumulonimbus.
Evolucionant progressivament
l' 25 a les 05 UTC al 25 a les 07 UTC
Vent 6 kt del Sud

TAF: OETF 241100Z 2412/2518 27015KT 9999 FEW030 TEMPO 2412/2416 FEW025CB BECMG 2505/2507 18006KT

Observacions i pronòstics meteorològics de més de 4000 aeroports (METAR i TAF).

Les estacions disponibles són els punts grocs i vermells al mapa.

Posi el ratolí al punt desitjat per veure el nom de l'estació.

Feu clic per veure les observacions i els pronòstics meteorològics.

Per canviar el mapa: feu clic els botons verds amb una creu de color negre per apropar; al botó verd amb un guió per allunyar la imatge; o en les fletxes verdes per a mapes adjacents.


METAR-TAF: